sensor_id;sensor_type;location;lat;lon;timestamp;P1;durP1;ratioP1;P2;durP2;ratioP2
79346;SDS011;68815;48.810;44.482;2023-09-19T00:00:13;8.8;;;4.7;;
79346;SDS011;68815;48.810;44.482;2023-09-19T00:03:15;10.1;;;5.1;;
79346;SDS011;68815;48.810;44.482;2023-09-19T00:06:16;9.6;;;5.1;;
79346;SDS011;68815;48.810;44.482;2023-09-19T00:09:18;8.8;;;5.2;;
79346;SDS011;68815;48.810;44.482;2023-09-19T00:12:19;11.4;;;5.5;;
79346;SDS011;68815;48.810;44.482;2023-09-19T00:15:21;13.4;;;6.2;;
79346;SDS011;68815;48.810;44.482;2023-09-19T00:18:23;21;;;10.4;;
79346;SDS011;68815;48.810;44.482;2023-09-19T00:21:24;18.7;;;6.5;;
79346;SDS011;68815;48.810;44.482;2023-09-19T00:24:26;20;;;10.5;;
79346;SDS011;68815;48.810;44.482;2023-09-19T00:27:27;27.2;;;13.8;;
79346;SDS011;68815;48.810;44.482;2023-09-19T00:30:29;15.1;;;7.1;;
79346;SDS011;68815;48.810;44.482;2023-09-19T00:33:31;15.8;;;6.6;;
79346;SDS011;68815;48.810;44.482;2023-09-19T00:36:32;15.5;;;7.3;;
79346;SDS011;68815;48.810;44.482;2023-09-19T00:39:33;12.1;;;6.2;;
79346;SDS011;68815;48.810;44.482;2023-09-19T00:42:35;13;;;5.6;;
79346;SDS011;68815;48.810;44.482;2023-09-19T00:45:37;14.7;;;7.1;;
79346;SDS011;68815;48.810;44.482;2023-09-19T00:48:40;12.5;;;6;;
79346;SDS011;68815;48.810;44.482;2023-09-19T00:51:43;14.4;;;6.2;;
79346;SDS011;68815;48.810;44.482;2023-09-19T00:54:45;14.1;;;6.3;;
79346;SDS011;68815;48.810;44.482;2023-09-19T00:57:47;14.6;;;5.9;;
79346;SDS011;68815;48.810;44.482;2023-09-19T01:00:49;12.8;;;6.1;;
79346;SDS011;68815;48.810;44.482;2023-09-19T01:03:51;16.4;;;6.1;;
79346;SDS011;68815;48.810;44.482;2023-09-19T01:06:53;12.2;;;6.6;;
79346;SDS011;68815;48.810;44.482;2023-09-19T01:10:41;13.9;;;6;;
79346;SDS011;68815;48.810;44.482;2023-09-19T01:14:34;13.8;;;6.8;;
79346;SDS011;68815;48.810;44.482;2023-09-19T01:18:29;15.3;;;6;;
79346;SDS011;68815;48.810;44.482;2023-09-19T01:22:22;13.9;;;6.5;;
79346;SDS011;68815;48.810;44.482;2023-09-19T01:25:51;13.8;;;6;;
79346;SDS011;68815;48.810;44.482;2023-09-19T01:29:12;13.9;;;6;;
79346;SDS011;68815;48.810;44.482;2023-09-19T01:32:22;12.7;;;6;;
79346;SDS011;68815;48.810;44.482;2023-09-19T01:35:25;10.5;;;5.8;;
79346;SDS011;68815;48.810;44.482;2023-09-19T01:38:26;9.9;;;5.3;;
79346;SDS011;68815;48.810;44.482;2023-09-19T01:41:33;11.6;;;5.9;;
79346;SDS011;68815;48.810;44.482;2023-09-19T01:44:44;11.4;;;5.4;;
79346;SDS011;68815;48.810;44.482;2023-09-19T01:47:53;11.7;;;5.5;;
79346;SDS011;68815;48.810;44.482;2023-09-19T01:50:58;11.8;;;5.9;;
79346;SDS011;68815;48.810;44.482;2023-09-19T01:54:02;10.2;;;5.6;;
79346;SDS011;68815;48.810;44.482;2023-09-19T01:57:10;10.1;;;5.6;;
79346;SDS011;68815;48.810;44.482;2023-09-19T02:00:18;11.4;;;5.5;;
79346;SDS011;68815;48.810;44.482;2023-09-19T02:03:22;10.4;;;5.8;;
79346;SDS011;68815;48.810;44.482;2023-09-19T02:06:25;10.5;;;5.5;;
79346;SDS011;68815;48.810;44.482;2023-09-19T02:09:26;11.3;;;5.5;;
79346;SDS011;68815;48.810;44.482;2023-09-19T02:12:28;9.4;;;5.1;;
79346;SDS011;68815;48.810;44.482;2023-09-19T02:15:30;9.4;;;5;;
79346;SDS011;68815;48.810;44.482;2023-09-19T02:18:32;13.6;;;5.1;;
79346;SDS011;68815;48.810;44.482;2023-09-19T02:21:33;8;;;4.7;;
79346;SDS011;68815;48.810;44.482;2023-09-19T02:24:35;9.6;;;4.8;;
79346;SDS011;68815;48.810;44.482;2023-09-19T02:27:36;8.6;;;4.8;;
79346;SDS011;68815;48.810;44.482;2023-09-19T02:30:38;9.6;;;5;;
79346;SDS011;68815;48.810;44.482;2023-09-19T02:33:39;9.9;;;5.1;;
79346;SDS011;68815;48.810;44.482;2023-09-19T02:36:41;12.1;;;5.6;;
79346;SDS011;68815;48.810;44.482;2023-09-19T02:39:42;9.4;;;5.1;;
79346;SDS011;68815;48.810;44.482;2023-09-19T02:42:44;9.1;;;5;;
79346;SDS011;68815;48.810;44.482;2023-09-19T02:45:45;10.3;;;5;;
79346;SDS011;68815;48.810;44.482;2023-09-19T02:48:47;12.4;;;5.5;;
79346;SDS011;68815;48.810;44.482;2023-09-19T02:51:48;11;;;5.1;;
79346;SDS011;68815;48.810;44.482;2023-09-19T02:54:50;8.8;;;4.7;;
79346;SDS011;68815;48.810;44.482;2023-09-19T02:57:52;10.1;;;5;;
79346;SDS011;68815;48.810;44.482;2023-09-19T03:00:55;10.2;;;5.1;;
79346;SDS011;68815;48.810;44.482;2023-09-19T03:03:56;8.7;;;4.6;;
79346;SDS011;68815;48.810;44.482;2023-09-19T03:06:58;7.8;;;4.5;;
79346;SDS011;68815;48.810;44.482;2023-09-19T03:10:00;9.3;;;4.8;;
79346;SDS011;68815;48.810;44.482;2023-09-19T03:13:01;8.7;;;4;;
79346;SDS011;68815;48.810;44.482;2023-09-19T03:16:03;6.9;;;4.3;;
79346;SDS011;68815;48.810;44.482;2023-09-19T03:19:05;8;;;4.3;;
79346;SDS011;68815;48.810;44.482;2023-09-19T03:22:06;8;;;4.1;;
79346;SDS011;68815;48.810;44.482;2023-09-19T03:25:08;7.9;;;4.3;;
79346;SDS011;68815;48.810;44.482;2023-09-19T03:28:10;7.9;;;4.7;;
79346;SDS011;68815;48.810;44.482;2023-09-19T03:31:11;8.6;;;4.7;;
79346;SDS011;68815;48.810;44.482;2023-09-19T03:34:13;9.1;;;4.8;;
79346;SDS011;68815;48.810;44.482;2023-09-19T03:37:14;7.2;;;4.7;;
79346;SDS011;68815;48.810;44.482;2023-09-19T03:40:16;8.8;;;4.8;;
79346;SDS011;68815;48.810;44.482;2023-09-19T03:43:17;11.1;;;4.9;;
79346;SDS011;68815;48.810;44.482;2023-09-19T03:46:19;9.6;;;4.6;;
79346;SDS011;68815;48.810;44.482;2023-09-19T03:49:20;8.4;;;4.6;;
79346;SDS011;68815;48.810;44.482;2023-09-19T03:52:22;8.6;;;4.7;;
79346;SDS011;68815;48.810;44.482;2023-09-19T03:55:23;10.6;;;5.2;;
79346;SDS011;68815;48.810;44.482;2023-09-19T03:58:25;9.2;;;4.5;;
79346;SDS011;68815;48.810;44.482;2023-09-19T04:01:27;8.7;;;4.8;;
79346;SDS011;68815;48.810;44.482;2023-09-19T04:04:29;10.1;;;4.6;;
79346;SDS011;68815;48.810;44.482;2023-09-19T04:07:30;8.7;;;5;;
79346;SDS011;68815;48.810;44.482;2023-09-19T04:10:32;8.4;;;5.1;;
79346;SDS011;68815;48.810;44.482;2023-09-19T04:13:33;14.5;;;5.4;;
79346;SDS011;68815;48.810;44.482;2023-09-19T04:16:35;9.2;;;5.5;;
79346;SDS011;68815;48.810;44.482;2023-09-19T04:19:37;11.1;;;5.6;;
79346;SDS011;68815;48.810;44.482;2023-09-19T04:22:38;13.3;;;5.5;;
79346;SDS011;68815;48.810;44.482;2023-09-19T04:25:40;11.5;;;5.7;;
79346;SDS011;68815;48.810;44.482;2023-09-19T04:28:42;12;;;6.2;;
79346;SDS011;68815;48.810;44.482;2023-09-19T04:31:43;10.2;;;5.9;;
79346;SDS011;68815;48.810;44.482;2023-09-19T04:34:44;13.5;;;6;;
79346;SDS011;68815;48.810;44.482;2023-09-19T04:37:46;10.4;;;5.8;;
79346;SDS011;68815;48.810;44.482;2023-09-19T04:40:48;13.2;;;6.9;;
79346;SDS011;68815;48.810;44.482;2023-09-19T04:43:50;13.9;;;7;;
79346;SDS011;68815;48.810;44.482;2023-09-19T04:46:51;12.4;;;5.6;;
79346;SDS011;68815;48.810;44.482;2023-09-19T04:49:52;11.6;;;5.6;;
79346;SDS011;68815;48.810;44.482;2023-09-19T04:52:54;12.3;;;5.3;;
79346;SDS011;68815;48.810;44.482;2023-09-19T04:55:55;15;;;5.1;;
79346;SDS011;68815;48.810;44.482;2023-09-19T04:58:57;10.9;;;5.5;;
79346;SDS011;68815;48.810;44.482;2023-09-19T05:05:30;13.4;;;5.7;;
79346;SDS011;68815;48.810;44.482;2023-09-19T05:08:31;13.8;;;5.4;;
79346;SDS011;68815;48.810;44.482;2023-09-19T05:11:33;10.5;;;5.1;;
79346;SDS011;68815;48.810;44.482;2023-09-19T05:14:34;9.7;;;5.3;;
79346;SDS011;68815;48.810;44.482;2023-09-19T05:17:36;11.7;;;5;;
79346;SDS011;68815;48.810;44.482;2023-09-19T05:20:37;10.2;;;5.4;;
79346;SDS011;68815;48.810;44.482;2023-09-19T05:23:39;12.8;;;5.4;;
79346;SDS011;68815;48.810;44.482;2023-09-19T05:26:41;14.5;;;5.5;;
79346;SDS011;68815;48.810;44.482;2023-09-19T05:29:42;11.1;;;5;;
79346;SDS011;68815;48.810;44.482;2023-09-19T05:32:44;12.3;;;5.4;;
79346;SDS011;68815;48.810;44.482;2023-09-19T05:35:45;11.5;;;5.1;;
79346;SDS011;68815;48.810;44.482;2023-09-19T05:38:47;9.8;;;5;;
79346;SDS011;68815;48.810;44.482;2023-09-19T05:41:48;12.2;;;5.2;;
79346;SDS011;68815;48.810;44.482;2023-09-19T05:44:49;10.6;;;5;;
79346;SDS011;68815;48.810;44.482;2023-09-19T05:47:51;14.3;;;5.2;;
79346;SDS011;68815;48.810;44.482;2023-09-19T05:50:53;11.7;;;5.1;;
79346;SDS011;68815;48.810;44.482;2023-09-19T05:53:55;10;;;4.9;;
79346;SDS011;68815;48.810;44.482;2023-09-19T05:56:56;10.5;;;4.8;;
79346;SDS011;68815;48.810;44.482;2023-09-19T05:59:58;9.5;;;5;;
79346;SDS011;68815;48.810;44.482;2023-09-19T06:03:00;12.1;;;4.8;;
79346;SDS011;68815;48.810;44.482;2023-09-19T06:06:03;10.2;;;5.3;;
79346;SDS011;68815;48.810;44.482;2023-09-19T06:09:05;11.9;;;5.1;;
79346;SDS011;68815;48.810;44.482;2023-09-19T06:12:07;10.1;;;5;;
79346;SDS011;68815;48.810;44.482;2023-09-19T06:15:08;11;;;5.4;;
79346;SDS011;68815;48.810;44.482;2023-09-19T06:18:11;11.2;;;4.9;;
79346;SDS011;68815;48.810;44.482;2023-09-19T06:21:13;12.1;;;5;;
79346;SDS011;68815;48.810;44.482;2023-09-19T06:24:14;9.9;;;4.4;;
79346;SDS011;68815;48.810;44.482;2023-09-19T06:27:15;8.6;;;4.7;;
79346;SDS011;68815;48.810;44.482;2023-09-19T06:30:17;8.6;;;4.7;;
79346;SDS011;68815;48.810;44.482;2023-09-19T06:33:19;10.2;;;5.1;;
79346;SDS011;68815;48.810;44.482;2023-09-19T06:36:20;10.9;;;4.9;;
79346;SDS011;68815;48.810;44.482;2023-09-19T06:39:22;12.9;;;4.9;;
79346;SDS011;68815;48.810;44.482;2023-09-19T06:42:24;12.1;;;4.6;;
79346;SDS011;68815;48.810;44.482;2023-09-19T06:45:25;12;;;4.9;;
79346;SDS011;68815;48.810;44.482;2023-09-19T06:48:27;11.7;;;4.5;;
79346;SDS011;68815;48.810;44.482;2023-09-19T06:51:29;8.5;;;4.2;;
79346;SDS011;68815;48.810;44.482;2023-09-19T06:54:30;15.8;;;4.5;;
79346;SDS011;68815;48.810;44.482;2023-09-19T06:57:31;10.9;;;4.6;;
79346;SDS011;68815;48.810;44.482;2023-09-19T07:00:33;11.6;;;4.2;;
79346;SDS011;68815;48.810;44.482;2023-09-19T07:03:35;10.3;;;4.8;;
79346;SDS011;68815;48.810;44.482;2023-09-19T07:06:37;10.4;;;4.3;;
79346;SDS011;68815;48.810;44.482;2023-09-19T07:09:38;8.4;;;4.3;;
79346;SDS011;68815;48.810;44.482;2023-09-19T07:12:39;10;;;4.3;;
79346;SDS011;68815;48.810;44.482;2023-09-19T07:15:41;8;;;4;;
79346;SDS011;68815;48.810;44.482;2023-09-19T07:18:43;9;;;4.2;;
79346;SDS011;68815;48.810;44.482;2023-09-19T07:21:44;9.8;;;4;;
79346;SDS011;68815;48.810;44.482;2023-09-19T07:24:46;10.8;;;3.7;;
79346;SDS011;68815;48.810;44.482;2023-09-19T07:27:47;6.5;;;3.4;;
79346;SDS011;68815;48.810;44.482;2023-09-19T07:30:49;11.7;;;3.8;;
79346;SDS011;68815;48.810;44.482;2023-09-19T07:33:50;8;;;3.9;;
79346;SDS011;68815;48.810;44.482;2023-09-19T07:36:51;10.7;;;3.9;;
79346;SDS011;68815;48.810;44.482;2023-09-19T07:39:53;7.4;;;3.8;;
79346;SDS011;68815;48.810;44.482;2023-09-19T07:42:55;11.7;;;3.9;;
79346;SDS011;68815;48.810;44.482;2023-09-19T07:45:56;7.6;;;3.5;;
79346;SDS011;68815;48.810;44.482;2023-09-19T07:48:58;8.1;;;3.8;;
79346;SDS011;68815;48.810;44.482;2023-09-19T07:51:59;8.7;;;3.7;;
79346;SDS011;68815;48.810;44.482;2023-09-19T07:55:01;11.7;;;3.7;;
79346;SDS011;68815;48.810;44.482;2023-09-19T07:58:03;8.1;;;3.6;;
79346;SDS011;68815;48.810;44.482;2023-09-19T08:01:04;6.9;;;3.3;;
79346;SDS011;68815;48.810;44.482;2023-09-19T08:04:07;7.7;;;3.3;;
79346;SDS011;68815;48.810;44.482;2023-09-19T08:07:08;7;;;3.4;;
79346;SDS011;68815;48.810;44.482;2023-09-19T08:10:11;7.8;;;3.5;;
79346;SDS011;68815;48.810;44.482;2023-09-19T08:13:18;8.9;;;3.5;;
79346;SDS011;68815;48.810;44.482;2023-09-19T08:16:20;11.1;;;3.8;;
79346;SDS011;68815;48.810;44.482;2023-09-19T08:19:21;6.7;;;3.3;;
79346;SDS011;68815;48.810;44.482;2023-09-19T08:22:22;6.5;;;3.1;;
79346;SDS011;68815;48.810;44.482;2023-09-19T08:25:24;8.6;;;3.3;;
79346;SDS011;68815;48.810;44.482;2023-09-19T08:28:25;10.5;;;3.5;;
79346;SDS011;68815;48.810;44.482;2023-09-19T08:31:27;8.6;;;3.6;;
79346;SDS011;68815;48.810;44.482;2023-09-19T08:34:29;7.4;;;3.4;;
79346;SDS011;68815;48.810;44.482;2023-09-19T08:37:31;11.5;;;3.6;;
79346;SDS011;68815;48.810;44.482;2023-09-19T08:40:34;7.4;;;3.3;;
79346;SDS011;68815;48.810;44.482;2023-09-19T08:43:38;7.7;;;3.5;;
79346;SDS011;68815;48.810;44.482;2023-09-19T08:46:40;8.2;;;3.4;;
79346;SDS011;68815;48.810;44.482;2023-09-19T08:49:47;6.2;;;3.7;;
79346;SDS011;68815;48.810;44.482;2023-09-19T08:52:55;9.3;;;3.7;;
79346;SDS011;68815;48.810;44.482;2023-09-19T08:56:01;8;;;3.7;;
79346;SDS011;68815;48.810;44.482;2023-09-19T08:59:06;6;;;3.3;;
79346;SDS011;68815;48.810;44.482;2023-09-19T09:02:09;6.6;;;3.2;;
79346;SDS011;68815;48.810;44.482;2023-09-19T09:05:13;9;;;3.6;;
79346;SDS011;68815;48.810;44.482;2023-09-19T09:08:20;5.7;;;3.1;;
79346;SDS011;68815;48.810;44.482;2023-09-19T09:11:23;7.9;;;3.3;;
79346;SDS011;68815;48.810;44.482;2023-09-19T09:14:25;9.2;;;3.9;;
79346;SDS011;68815;48.810;44.482;2023-09-19T09:17:26;5.5;;;3;;
79346;SDS011;68815;48.810;44.482;2023-09-19T09:20:28;7.4;;;3.5;;
79346;SDS011;68815;48.810;44.482;2023-09-19T09:23:29;7.9;;;3.6;;
79346;SDS011;68815;48.810;44.482;2023-09-19T09:29:49;7.9;;;2.9;;
79346;SDS011;68815;48.810;44.482;2023-09-19T09:32:54;6.1;;;2.8;;
79346;SDS011;68815;48.810;44.482;2023-09-19T09:36:10;9.8;;;2.9;;
79346;SDS011;68815;48.810;44.482;2023-09-19T09:39:12;8.5;;;2.9;;
79346;SDS011;68815;48.810;44.482;2023-09-19T09:42:14;6.4;;;2.7;;
79346;SDS011;68815;48.810;44.482;2023-09-19T09:45:31;6.1;;;2.7;;
79346;SDS011;68815;48.810;44.482;2023-09-19T09:48:32;7;;;2.8;;
79346;SDS011;68815;48.810;44.482;2023-09-19T09:51:34;7.8;;;3.1;;
79346;SDS011;68815;48.810;44.482;2023-09-19T09:54:35;6.6;;;2.4;;
79346;SDS011;68815;48.810;44.482;2023-09-19T09:57:37;6.8;;;2.6;;
79346;SDS011;68815;48.810;44.482;2023-09-19T10:00:40;5.5;;;2.7;;
79346;SDS011;68815;48.810;44.482;2023-09-19T10:03:57;7.7;;;2.9;;
79346;SDS011;68815;48.810;44.482;2023-09-19T10:06:59;8.4;;;2.9;;
79346;SDS011;68815;48.810;44.482;2023-09-19T10:10:02;7.1;;;2.7;;
79346;SDS011;68815;48.810;44.482;2023-09-19T10:13:05;6.1;;;3;;
79346;SDS011;68815;48.810;44.482;2023-09-19T10:16:07;8.3;;;3.7;;
79346;SDS011;68815;48.810;44.482;2023-09-19T10:19:12;10.1;;;3.6;;
79346;SDS011;68815;48.810;44.482;2023-09-19T10:22:18;7.4;;;2.7;;
79346;SDS011;68815;48.810;44.482;2023-09-19T10:25:21;8.4;;;3;;
79346;SDS011;68815;48.810;44.482;2023-09-19T10:28:23;6.7;;;2.7;;
79346;SDS011;68815;48.810;44.482;2023-09-19T10:31:29;7.6;;;2.8;;
79346;SDS011;68815;48.810;44.482;2023-09-19T10:34:33;6.5;;;2.8;;
79346;SDS011;68815;48.810;44.482;2023-09-19T10:37:36;6.8;;;3;;
79346;SDS011;68815;48.810;44.482;2023-09-19T10:40:39;7;;;3;;
79346;SDS011;68815;48.810;44.482;2023-09-19T10:43:41;7.1;;;2.9;;
79346;SDS011;68815;48.810;44.482;2023-09-19T10:46:44;6.4;;;2.7;;
79346;SDS011;68815;48.810;44.482;2023-09-19T10:49:46;5.5;;;2.5;;
79346;SDS011;68815;48.810;44.482;2023-09-19T10:52:48;8;;;3.5;;
79346;SDS011;68815;48.810;44.482;2023-09-19T10:55:51;7.1;;;3.2;;
79346;SDS011;68815;48.810;44.482;2023-09-19T10:59:05;7.5;;;3.6;;
79346;SDS011;68815;48.810;44.482;2023-09-19T11:02:15;7;;;2.8;;
79346;SDS011;68815;48.810;44.482;2023-09-19T11:05:18;9.4;;;2.8;;
79346;SDS011;68815;48.810;44.482;2023-09-19T11:08:21;6.9;;;3.2;;
79346;SDS011;68815;48.810;44.482;2023-09-19T11:14:47;4.6;;;2.4;;
79346;SDS011;68815;48.810;44.482;2023-09-19T11:17:49;6;;;2.7;;
79346;SDS011;68815;48.810;44.482;2023-09-19T11:20:52;7.4;;;2.9;;
79346;SDS011;68815;48.810;44.482;2023-09-19T11:24:29;5.9;;;3;;
79346;SDS011;68815;48.810;44.482;2023-09-19T11:27:32;6.4;;;2.8;;
79346;SDS011;68815;48.810;44.482;2023-09-19T11:30:34;6.5;;;3.2;;
79346;SDS011;68815;48.810;44.482;2023-09-19T11:33:37;6.4;;;2.9;;
79346;SDS011;68815;48.810;44.482;2023-09-19T11:36:38;8.2;;;2.9;;
79346;SDS011;68815;48.810;44.482;2023-09-19T11:39:40;5.9;;;2.8;;
79346;SDS011;68815;48.810;44.482;2023-09-19T11:46:27;8.1;;;3.1;;
79346;SDS011;68815;48.810;44.482;2023-09-19T11:49:30;6.1;;;3.1;;
79346;SDS011;68815;48.810;44.482;2023-09-19T11:52:32;6.5;;;3;;
79346;SDS011;68815;48.810;44.482;2023-09-19T11:55:34;6.6;;;2.6;;
79346;SDS011;68815;48.810;44.482;2023-09-19T11:58:35;6.4;;;2.7;;
79346;SDS011;68815;48.810;44.482;2023-09-19T12:01:40;5.9;;;2.5;;
79346;SDS011;68815;48.810;44.482;2023-09-19T12:04:53;5.7;;;2.7;;
79346;SDS011;68815;48.810;44.482;2023-09-19T12:07:54;7.1;;;3.1;;
79346;SDS011;68815;48.810;44.482;2023-09-19T12:10:56;5.6;;;2.6;;
79346;SDS011;68815;48.810;44.482;2023-09-19T12:13:57;6;;;2.4;;
79346;SDS011;68815;48.810;44.482;2023-09-19T12:17:00;5.7;;;2.7;;
79346;SDS011;68815;48.810;44.482;2023-09-19T12:20:01;6.1;;;2.7;;
79346;SDS011;68815;48.810;44.482;2023-09-19T12:23:06;6.1;;;2.5;;
79346;SDS011;68815;48.810;44.482;2023-09-19T12:26:14;7.4;;;2.6;;
79346;SDS011;68815;48.810;44.482;2023-09-19T12:29:16;6.8;;;3.3;;
79346;SDS011;68815;48.810;44.482;2023-09-19T12:32:19;19.6;;;10.6;;
79346;SDS011;68815;48.810;44.482;2023-09-19T12:35:35;7;;;3;;
79346;SDS011;68815;48.810;44.482;2023-09-19T12:38:37;7.9;;;2.9;;
79346;SDS011;68815;48.810;44.482;2023-09-19T12:41:38;5.2;;;2.5;;
79346;SDS011;68815;48.810;44.482;2023-09-19T12:44:40;6;;;2.7;;
79346;SDS011;68815;48.810;44.482;2023-09-19T12:51:10;7.1;;;2.7;;
79346;SDS011;68815;48.810;44.482;2023-09-19T12:54:12;6.3;;;3.1;;
79346;SDS011;68815;48.810;44.482;2023-09-19T12:57:23;5.4;;;2.9;;
79346;SDS011;68815;48.810;44.482;2023-09-19T13:00:31;6.5;;;3;;
79346;SDS011;68815;48.810;44.482;2023-09-19T13:03:33;4.9;;;2.6;;
79346;SDS011;68815;48.810;44.482;2023-09-19T13:06:35;5.6;;;2.5;;
79346;SDS011;68815;48.810;44.482;2023-09-19T13:09:37;5.3;;;2.3;;
79346;SDS011;68815;48.810;44.482;2023-09-19T13:12:39;7;;;2.3;;
79346;SDS011;68815;48.810;44.482;2023-09-19T13:18:54;6.2;;;2.8;;
79346;SDS011;68815;48.810;44.482;2023-09-19T13:21:57;5;;;2.5;;
79346;SDS011;68815;48.810;44.482;2023-09-19T13:24:58;6.2;;;2.4;;
79346;SDS011;68815;48.810;44.482;2023-09-19T13:28:00;5.5;;;2.6;;
79346;SDS011;68815;48.810;44.482;2023-09-19T13:31:01;5.6;;;2.7;;
79346;SDS011;68815;48.810;44.482;2023-09-19T13:34:03;7.4;;;2.9;;
79346;SDS011;68815;48.810;44.482;2023-09-19T13:37:04;7.1;;;3;;
79346;SDS011;68815;48.810;44.482;2023-09-19T13:40:06;7.6;;;3.2;;
79346;SDS011;68815;48.810;44.482;2023-09-19T13:43:08;13.2;;;4.7;;
79346;SDS011;68815;48.810;44.482;2023-09-19T13:46:10;17.8;;;5.5;;
79346;SDS011;68815;48.810;44.482;2023-09-19T13:49:11;11.4;;;3.6;;
79346;SDS011;68815;48.810;44.482;2023-09-19T13:52:13;10.9;;;4.2;;
79346;SDS011;68815;48.810;44.482;2023-09-19T13:55:14;6.9;;;2.8;;
79346;SDS011;68815;48.810;44.482;2023-09-19T13:58:16;9.3;;;3.2;;
79346;SDS011;68815;48.810;44.482;2023-09-19T14:01:17;7.1;;;3;;
79346;SDS011;68815;48.810;44.482;2023-09-19T14:04:19;9.4;;;3.2;;
79346;SDS011;68815;48.810;44.482;2023-09-19T14:07:20;7.2;;;3.2;;
79346;SDS011;68815;48.810;44.482;2023-09-19T14:10:22;7.3;;;3.2;;
79346;SDS011;68815;48.810;44.482;2023-09-19T14:13:24;7.7;;;3.6;;
79346;SDS011;68815;48.810;44.482;2023-09-19T14:16:25;8.6;;;3.2;;
79346;SDS011;68815;48.810;44.482;2023-09-19T14:19:27;8.2;;;3.5;;
79346;SDS011;68815;48.810;44.482;2023-09-19T14:22:29;14.5;;;4.5;;
79346;SDS011;68815;48.810;44.482;2023-09-19T14:25:34;14.7;;;5.6;;
79346;SDS011;68815;48.810;44.482;2023-09-19T14:28:35;14;;;5.2;;
79346;SDS011;68815;48.810;44.482;2023-09-19T14:31:37;13.7;;;5.9;;
79346;SDS011;68815;48.810;44.482;2023-09-19T14:34:39;16.7;;;5.6;;
79346;SDS011;68815;48.810;44.482;2023-09-19T14:37:40;20.5;;;6.8;;
79346;SDS011;68815;48.810;44.482;2023-09-19T14:40:41;21.5;;;8.1;;
79346;SDS011;68815;48.810;44.482;2023-09-19T14:43:43;18.9;;;6.1;;
79346;SDS011;68815;48.810;44.482;2023-09-19T14:46:44;15.2;;;5.9;;
79346;SDS011;68815;48.810;44.482;2023-09-19T14:49:46;14.1;;;5.7;;
79346;SDS011;68815;48.810;44.482;2023-09-19T14:52:47;11.7;;;4.9;;
79346;SDS011;68815;48.810;44.482;2023-09-19T14:55:49;10.9;;;4.7;;
79346;SDS011;68815;48.810;44.482;2023-09-19T14:58:50;11.9;;;4.9;;
79346;SDS011;68815;48.810;44.482;2023-09-19T15:01:52;12.7;;;5.1;;
79346;SDS011;68815;48.810;44.482;2023-09-19T15:04:53;12.9;;;6.7;;
79346;SDS011;68815;48.810;44.482;2023-09-19T15:07:54;12;;;4.9;;
79346;SDS011;68815;48.810;44.482;2023-09-19T15:10:56;13.1;;;5.8;;
79346;SDS011;68815;48.810;44.482;2023-09-19T15:13:57;13.4;;;5.8;;
79346;SDS011;68815;48.810;44.482;2023-09-19T15:16:59;17.4;;;6.1;;
79346;SDS011;68815;48.810;44.482;2023-09-19T15:20:01;12.3;;;4.9;;
79346;SDS011;68815;48.810;44.482;2023-09-19T15:23:05;13.2;;;5.3;;
79346;SDS011;68815;48.810;44.482;2023-09-19T15:26:07;12.1;;;5.3;;
79346;SDS011;68815;48.810;44.482;2023-09-19T15:29:09;36.6;;;6.8;;
79346;SDS011;68815;48.810;44.482;2023-09-19T15:32:11;23.5;;;6.1;;
79346;SDS011;68815;48.810;44.482;2023-09-19T15:35:12;18.1;;;6.3;;
79346;SDS011;68815;48.810;44.482;2023-09-19T15:38:14;20.4;;;7.5;;
79346;SDS011;68815;48.810;44.482;2023-09-19T15:41:15;34.3;;;14.9;;
79346;SDS011;68815;48.810;44.482;2023-09-19T15:44:17;30.6;;;14.6;;
79346;SDS011;68815;48.810;44.482;2023-09-19T15:47:19;33.4;;;13.4;;
79346;SDS011;68815;48.810;44.482;2023-09-19T15:50:21;30.8;;;12.8;;
79346;SDS011;68815;48.810;44.482;2023-09-19T15:53:23;26.9;;;10.5;;
79346;SDS011;68815;48.810;44.482;2023-09-19T15:56:24;28.4;;;9.1;;
79346;SDS011;68815;48.810;44.482;2023-09-19T15:59:26;25.3;;;9.1;;
79346;SDS011;68815;48.810;44.482;2023-09-19T16:02:27;23.9;;;8.9;;
79346;SDS011;68815;48.810;44.482;2023-09-19T16:05:34;33.3;;;8.9;;
79346;SDS011;68815;48.810;44.482;2023-09-19T16:08:38;24.8;;;8.5;;
79346;SDS011;68815;48.810;44.482;2023-09-19T16:11:40;29.9;;;7.4;;
79346;SDS011;68815;48.810;44.482;2023-09-19T16:14:42;22.6;;;7.7;;
79346;SDS011;68815;48.810;44.482;2023-09-19T16:17:43;23.3;;;7;;
79346;SDS011;68815;48.810;44.482;2023-09-19T16:20:45;17.3;;;5.9;;
79346;SDS011;68815;48.810;44.482;2023-09-19T16:23:46;18.8;;;5.5;;
79346;SDS011;68815;48.810;44.482;2023-09-19T16:26:49;16.1;;;5.3;;
79346;SDS011;68815;48.810;44.482;2023-09-19T16:29:50;12.6;;;4.5;;
79346;SDS011;68815;48.810;44.482;2023-09-19T16:32:51;16.6;;;4.6;;
79346;SDS011;68815;48.810;44.482;2023-09-19T16:35:53;16.8;;;5.3;;
79346;SDS011;68815;48.810;44.482;2023-09-19T16:38:54;18.1;;;5.8;;
79346;SDS011;68815;48.810;44.482;2023-09-19T16:41:56;19.6;;;5.5;;
79346;SDS011;68815;48.810;44.482;2023-09-19T16:44:57;16.7;;;5.4;;
79346;SDS011;68815;48.810;44.482;2023-09-19T16:47:58;14.8;;;5.3;;
79346;SDS011;68815;48.810;44.482;2023-09-19T16:51:00;12.5;;;5;;
79346;SDS011;68815;48.810;44.482;2023-09-19T16:54:03;15.7;;;5.6;;
79346;SDS011;68815;48.810;44.482;2023-09-19T16:57:05;16.2;;;5.4;;
79346;SDS011;68815;48.810;44.482;2023-09-19T17:00:07;20.2;;;6.5;;
79346;SDS011;68815;48.810;44.482;2023-09-19T17:03:09;18.2;;;5.9;;
79346;SDS011;68815;48.810;44.482;2023-09-19T17:06:10;17.5;;;7.1;;
79346;SDS011;68815;48.810;44.482;2023-09-19T17:09:14;21.8;;;6.9;;
79346;SDS011;68815;48.810;44.482;2023-09-19T17:12:16;35.2;;;9;;
79346;SDS011;68815;48.810;44.482;2023-09-19T17:15:17;34.6;;;8.6;;
79346;SDS011;68815;48.810;44.482;2023-09-19T17:18:18;31.9;;;8.7;;
79346;SDS011;68815;48.810;44.482;2023-09-19T17:21:20;26.3;;;7.4;;
79346;SDS011;68815;48.810;44.482;2023-09-19T17:24:22;22.3;;;7;;
79346;SDS011;68815;48.810;44.482;2023-09-19T17:27:24;24.5;;;6.6;;
79346;SDS011;68815;48.810;44.482;2023-09-19T17:30:25;20;;;6.5;;
79346;SDS011;68815;48.810;44.482;2023-09-19T17:33:27;18.6;;;6;;
79346;SDS011;68815;48.810;44.482;2023-09-19T17:36:29;17.6;;;5.5;;
79346;SDS011;68815;48.810;44.482;2023-09-19T17:39:31;15.4;;;5.2;;
79346;SDS011;68815;48.810;44.482;2023-09-19T17:42:32;15.2;;;5.3;;
79346;SDS011;68815;48.810;44.482;2023-09-19T17:45:33;15.7;;;5.6;;
79346;SDS011;68815;48.810;44.482;2023-09-19T17:48:35;16.2;;;5.7;;
79346;SDS011;68815;48.810;44.482;2023-09-19T17:51:37;13;;;5.2;;
79346;SDS011;68815;48.810;44.482;2023-09-19T17:54:38;12;;;5.1;;
79346;SDS011;68815;48.810;44.482;2023-09-19T17:57:40;18.3;;;5.6;;
79346;SDS011;68815;48.810;44.482;2023-09-19T18:00:42;12.2;;;5.2;;
79346;SDS011;68815;48.810;44.482;2023-09-19T18:03:44;23.3;;;10.1;;
79346;SDS011;68815;48.810;44.482;2023-09-19T18:06:45;21.7;;;7.7;;
79346;SDS011;68815;48.810;44.482;2023-09-19T18:09:48;16.4;;;4.8;;
79346;SDS011;68815;48.810;44.482;2023-09-19T18:12:49;22.5;;;6.8;;
79346;SDS011;68815;48.810;44.482;2023-09-19T18:15:51;20.6;;;5.7;;
79346;SDS011;68815;48.810;44.482;2023-09-19T18:18:53;16.4;;;6.2;;
79346;SDS011;68815;48.810;44.482;2023-09-19T18:21:54;19.1;;;6.3;;
79346;SDS011;68815;48.810;44.482;2023-09-19T18:24:56;15;;;6.3;;
79346;SDS011;68815;48.810;44.482;2023-09-19T18:27:57;22.3;;;8.5;;
79346;SDS011;68815;48.810;44.482;2023-09-19T18:30:59;32.2;;;11.2;;
79346;SDS011;68815;48.810;44.482;2023-09-19T18:34:06;19.3;;;6.8;;
79346;SDS011;68815;48.810;44.482;2023-09-19T18:37:08;21.4;;;6.9;;
79346;SDS011;68815;48.810;44.482;2023-09-19T18:40:10;24.1;;;7.4;;
79346;SDS011;68815;48.810;44.482;2023-09-19T18:43:11;17.5;;;6.6;;
79346;SDS011;68815;48.810;44.482;2023-09-19T18:46:13;19.6;;;7.4;;
79346;SDS011;68815;48.810;44.482;2023-09-19T18:49:15;21.9;;;7.3;;
79346;SDS011;68815;48.810;44.482;2023-09-19T18:52:16;16.4;;;6.8;;
79346;SDS011;68815;48.810;44.482;2023-09-19T18:55:18;18.2;;;7.2;;